Oma, Wisconsin
Current Conditions -  °F | °C
As of 11:35 AM on Friday 21 Nov 2014 (Local Time) from KIWD Reporting Station
Broken Clouds Broken Clouds  
Wind Chill:   Ceiling: 12000
Heat Index: 19°   Visibility: 10mi
Dew Point:   Wind: 15mph
Humidity: 54%   Direction: 200°SSW
Pressure: 30.04"   Gusts: 22mph
Location:  46.3789°N, 90.2259°W
Report Text: KIWD 211735Z AUTO 20013G19KT 10SM SCT095 BKN120 M07/M15 A3004 RMK AO1
Loading
Personal Weather Stations






























Interactive Weather Map New forecast layout! Learn more

10-Day Weather Forecast

Advertisements
Track Severe Weather on mobile